Time;durP1;ratioP1;P1;durP2;ratioP2;P2;SDS_P1;SDS_P2;PMS_P1;PMS_P2;Temp;Humidity;BMP_temperature;BMP_pressure;BME280_temperature;BME280_humidity;BME280_pressure;Samples;Min_cycle;Max_cycle;Signal;HPM_P1;HPM_P2
2023/09/13 00:02:05;;;;;;;25.05;7.15;;;;;;;18.97;60.96;99622.34;4988730;28;20033;-72
2023/09/13 00:04:31;;;;;;;14.90;6.22;;;;;;;18.92;60.51;99624.28;4992859;28;20038;-72
2023/09/13 00:06:56;;;;;;;8.05;6.10;;;;;;;18.82;60.87;99619.31;4993513;28;20022;-72
2023/09/13 00:09:21;;;;;;;12.32;6.47;;;;;;;18.95;60.81;99617.03;4993411;28;20483;-72
2023/09/13 00:11:47;;;;;;;12.88;6.10;;;;;;;19.05;60.24;99626.88;4990877;28;20562;-72
2023/09/13 00:14:13;;;;;;;12.88;6.15;;;;;;;18.60;61.46;99626.78;4992876;28;20031;-72
2023/09/13 00:16:39;;;;;;;8.82;6.20;;;;;;;18.40;61.75;99626.13;4993056;28;20037;-72
2023/09/13 00:19:06;;;;;;;9.65;6.15;;;;;;;18.53;61.42;99633.16;4991416;28;20030;-72
2023/09/13 00:21:32;;;;;;;13.45;6.57;;;;;;;18.77;61.20;99623.34;4991180;28;20022;-72
2023/09/13 00:23:58;;;;;;;14.55;6.53;;;;;;;18.84;60.61;99625.44;4992728;28;20034;-72
2023/09/13 00:26:24;;;;;;;16.05;5.47;;;;;;;18.90;61.08;99625.91;4990852;28;20038;-72
2023/09/13 00:28:50;;;;;;;9.10;5.75;;;;;;;18.90;60.24;99626.72;4992384;28;20037;-72
2023/09/13 00:31:16;;;;;;;9.25;5.65;;;;;;;18.94;60.09;99619.06;4992255;28;20030;-72
2023/09/13 00:33:41;;;;;;;13.18;6.50;;;;;;;18.72;60.37;99631.38;4975284;28;20030;-72
2023/09/13 00:36:06;;;;;;;8.27;5.35;;;;;;;18.47;61.28;99631.88;4992945;28;20033;-73
2023/09/13 00:38:32;;;;;;;9.40;5.82;;;;;;;18.67;60.19;99624.84;4992945;28;20034;-72
2023/09/13 00:40:57;;;;;;;11.77;5.80;;;;;;;18.60;60.48;99630.44;4971390;28;20109;-73
2023/09/13 00:43:25;;;;;;;9.15;6.05;;;;;;;18.69;60.11;99629.28;4985100;28;20101;-73
2023/09/13 00:45:51;;;;;;;10.43;5.07;;;;;;;18.76;60.08;99630.22;4991359;28;20057;-73
2023/09/13 00:48:17;;;;;;;13.48;5.70;;;;;;;18.69;60.89;99632.13;4992493;28;20030;-73
2023/09/13 00:50:45;;;;;;;9.38;5.82;;;;;;;18.76;60.18;99632.22;4991797;28;20040;-73
2023/09/13 00:53:11;;;;;;;9.38;5.50;;;;;;;18.51;61.48;99632.75;4992441;28;20389;-73
2023/09/13 00:55:38;;;;;;;10.98;6.15;;;;;;;18.36;62.00;99637.41;4992520;28;20029;-73
2023/09/13 00:58:05;;;;;;;10.57;5.55;;;;;;;18.07;63.76;99626.50;4991601;28;20042;-73
2023/09/13 01:00:32;;;;;;;12.60;5.40;;;;;;;17.72;65.58;99635.25;4986733;28;20027;-73
2023/09/13 01:02:58;;;;;;;10.18;5.80;;;;;;;18.02;64.31;99635.28;4973097;28;20023;-73
2023/09/13 01:05:25;;;;;;;14.10;7.25;;;;;;;18.06;63.70;99639.00;4971561;28;20122;-72
2023/09/13 01:07:51;;;;;;;16.90;7.35;;;;;;;18.09;63.69;99637.44;4955655;28;20045;-72
2023/09/13 01:10:16;;;;;;;12.23;5.97;;;;;;;17.99;63.88;99641.72;4972477;28;20352;-73
2023/09/13 01:12:42;;;;;;;13.48;5.85;;;;;;;17.96;63.08;99648.13;4971540;28;20470;-72
2023/09/13 01:15:08;;;;;;;15.82;6.72;;;;;;;18.17;62.84;99638.34;4990998;28;20026;-73
2023/09/13 01:17:46;;;;;;;15.80;6.53;;;;;;;18.26;62.43;99638.06;4992242;28;20479;-72
2023/09/13 01:20:42;;;;;;;10.07;5.78;;;;;;;18.21;62.03;99639.22;4989430;28;20038;-73
2023/09/13 01:23:26;;;;;;;28.98;6.38;;;;;;;18.17;62.09;99638.34;4992131;28;20085;-73
2023/09/13 01:26:13;;;;;;;9.80;5.75;;;;;;;18.27;61.90;99645.34;4990991;28;20050;-73
2023/09/13 01:28:41;;;;;;;18.90;6.28;;;;;;;18.05;61.55;99634.56;4991671;28;20037;-73
2023/09/13 01:31:09;;;;;;;11.52;5.80;;;;;;;17.86;62.40;99635.47;4982846;28;20034;-72
2023/09/13 01:33:35;;;;;;;22.08;6.15;;;;;;;17.80;63.05;99645.47;4955266;28;20041;-72
2023/09/13 01:36:01;;;;;;;12.23;6.18;;;;;;;17.80;62.92;99646.28;4986837;28;20113;-73
2023/09/13 01:38:27;;;;;;;13.38;6.05;;;;;;;17.72;63.40;99644.53;4991939;28;20108;-72
2023/09/13 01:41:00;;;;;;;14.98;7.00;;;;;;;17.89;63.25;99648.03;4984708;28;20030;-72
2023/09/13 01:43:26;;;;;;;14.52;7.15;;;;;;;17.91;62.72;99642.81;4972295;28;20575;-72
2023/09/13 01:45:53;;;;;;;10.77;6.20;;;;;;;17.82;63.24;99638.22;4990649;28;20038;-72
2023/09/13 01:48:19;;;;;;;10.43;6.57;;;;;;;17.66;63.35;99637.56;4989426;28;20069;-72
2023/09/13 01:50:47;;;;;;;7.57;6.40;;;;;;;17.32;63.58;99643.88;4986591;28;20037;-72
2023/09/13 01:53:12;;;;;;;10.77;6.20;;;;;;;16.89;65.49;99654.34;4991830;28;20027;-72
2023/09/13 01:55:38;;;;;;;11.15;5.60;;;;;;;17.15;65.00;99648.03;4991768;28;20086;-72
2023/09/13 01:58:03;;;;;;;13.45;5.10;;;;;;;17.10;63.94;99645.50;4991785;28;20026;-72
2023/09/13 02:00:29;;;;;;;22.27;6.00;;;;;;;17.08;64.07;99651.53;4990481;28;20504;-72
2023/09/13 02:02:54;;;;;;;12.43;5.15;;;;;;;17.08;63.49;99642.22;4991702;28;20032;-72
2023/09/13 02:05:20;;;;;;;13.75;6.30;;;;;;;16.91;63.91;99649.97;4991614;28;20237;-72
2023/09/13 02:07:45;;;;;;;16.00;6.45;;;;;;;16.95;64.17;99648.03;4991641;28;20030;-72
2023/09/13 02:10:11;;;;;;;16.75;6.22;;;;;;;16.96;63.96;99654.50;4990710;28;20038;-72
2023/09/13 02:12:36;;;;;;;15.27;6.53;;;;;;;16.87;64.21;99653.91;4991643;28;20030;-72
2023/09/13 02:15:04;;;;;;;16.92;5.82;;;;;;;16.58;65.39;99640.03;4991165;28;20041;-72
2023/09/13 02:17:32;;;;;;;9.40;6.45;;;;;;;16.60;65.60;99646.13;4980921;28;20409;-72
2023/09/13 02:19:57;;;;;;;14.63;7.00;;;;;;;16.54;65.91;99641.97;4970670;28;20097;-72
2023/09/13 02:22:22;;;;;;;14.20;6.95;;;;;;;16.48;66.36;99651.91;4986678;28;20038;-72
2023/09/13 02:24:48;;;;;;;10.13;6.63;;;;;;;16.25;67.53;99655.47;4991273;28;20109;-72
2023/09/13 02:27:13;;;;;;;12.80;6.95;;;;;;;16.19;67.89;99656.97;4991237;28;20116;-72
2023/09/13 02:29:39;;;;;;;11.70;6.68;;;;;;;16.46;67.33;99648.66;4988229;28;20027;-72
2023/09/13 02:32:04;;;;;;;15.55;6.18;;;;;;;16.64;66.78;99644.19;4973888;28;20156;-72
2023/09/13 02:34:30;;;;;;;11.43;6.70;;;;;;;16.51;67.14;99645.53;4982956;28;20018;-72
2023/09/13 02:36:55;;;;;;;10.48;5.75;;;;;;;16.66;66.50;99650.31;4985580;28;20033;-72
2023/09/13 02:39:34;;;;;;;18.50;6.47;;;;;;;16.80;66.56;99646.13;4992526;28;20046;-72
2023/09/13 02:42:02;;;;;;;11.95;6.80;;;;;;;16.58;67.37;99654.16;4995079;28;20037;-72
2023/09/13 02:44:27;;;;;;;15.00;6.40;;;;;;;16.66;67.13;99652.28;4983525;28;20519;-72
2023/09/13 02:46:53;;;;;;;12.38;7.43;;;;;;;16.64;67.13;99644.19;4975378;28;20031;-72
2023/09/13 02:49:18;;;;;;;14.65;7.03;;;;;;;16.47;68.31;99647.47;4993792;28;20041;-72
2023/09/13 02:51:45;;;;;;;11.32;6.85;;;;;;;16.46;68.62;99648.66;4975262;28;20411;-72
2023/09/13 02:54:10;;;;;;;12.27;7.28;;;;;;;15.96;70.10;99649.19;4975412;28;20411;-72
2023/09/13 02:56:35;;;;;;;10.32;6.80;;;;;;;15.98;70.37;99653.25;4975423;28;20033;-72
2023/09/13 02:59:01;;;;;;;11.82;6.88;;;;;;;15.82;70.31;99650.47;4991379;28;20030;-72
2023/09/13 03:01:26;;;;;;;14.10;7.13;;;;;;;15.65;70.65;99650.84;4989364;28;20034;-72
2023/09/13 03:03:52;;;;;;;17.30;7.47;;;;;;;15.38;71.27;99648.56;4990355;28;20519;-72
2023/09/13 03:06:17;;;;;;;11.25;6.70;;;;;;;15.16;72.31;99650.84;4994644;28;20380;-72
2023/09/13 03:08:43;;;;;;;11.88;7.32;;;;;;;14.96;72.60;99652.72;4977092;28;20132;-72
2023/09/13 03:11:14;;;;;;;9.98;6.95;;;;;;;15.10;72.58;99654.28;4992827;28;20030;-72
2023/09/13 03:13:39;;;;;;;12.20;6.65;;;;;;;15.05;72.49;99648.91;4976882;28;20553;-72
2023/09/13 03:16:21;;;;;;;20.42;6.95;;;;;;;15.15;71.98;99654.84;4994557;28;20026;-72
2023/09/13 03:18:48;;;;;;;9.40;6.25;;;;;;;15.16;72.17;99647.19;4994488;28;20454;-72
2023/09/13 03:21:15;;;;;;;17.52;7.00;;;;;;;15.17;72.22;99651.66;4992604;28;20034;-72
2023/09/13 03:23:42;;;;;;;10.60;5.63;;;;;;;15.10;72.24;99655.09;4976641;28;20045;-72
2023/09/13 03:26:19;;;;;;;12.85;6.63;;;;;;;15.05;72.30;99652.56;4994078;28;20526;-72
2023/09/13 03:28:46;;;;;;;10.80;6.38;;;;;;;15.25;71.71;99655.47;4993531;28;20038;-72
2023/09/13 03:31:13;;;;;;;14.50;7.13;;;;;;;15.17;72.33;99660.09;4993574;28;20034;-72
2023/09/13 03:33:40;;;;;;;14.77;7.72;;;;;;;15.14;72.42;99664.47;4994204;28;20101;-72
2023/09/13 03:36:08;;;;;;;15.80;6.72;;;;;;;15.21;71.92;99661.03;4979671;28;20026;-72
2023/09/13 03:38:35;;;;;;;14.07;6.80;;;;;;;14.92;73.08;99659.44;4992424;28;20041;-72
2023/09/13 03:41:03;;;;;;;10.50;5.85;;;;;;;15.08;73.02;99656.63;4993035;28;20030;-72
2023/09/13 03:43:28;;;;;;;15.82;6.45;;;;;;;15.10;72.60;99662.75;4993955;28;20089;-72
2023/09/13 03:45:54;;;;;;;24.00;7.47;;;;;;;15.09;72.55;99652.66;4980897;28;20457;-72
2023/09/13 03:48:19;;;;;;;9.90;6.82;;;;;;;14.87;73.49;99666.13;4993811;28;20033;-72
2023/09/13 03:50:45;;;;;;;16.25;6.10;;;;;;;14.96;73.30;99665.97;4992347;28;20113;-72
2023/09/13 03:53:10;;;;;;;18.60;8.70;;;;;;;14.89;73.59;99672.22;4976040;28;20569;-72
2023/09/13 03:55:35;;;;;;;14.73;11.07;;;;;;;14.90;73.49;99667.41;4980191;28;20453;-72
2023/09/13 03:58:01;;;;;;;13.15;10.63;;;;;;;14.84;73.78;99673.31;4974174;28;20034;-72
2023/09/13 04:00:27;;;;;;;15.63;9.73;;;;;;;14.99;73.32;99670.88;4962465;28;20035;-72
2023/09/13 04:02:53;;;;;;;19.90;8.13;;;;;;;15.02;73.23;99682.25;4974190;28;20495;-72
2023/09/13 04:05:18;;;;;;;17.42;7.07;;;;;;;14.97;73.63;99673.25;4982485;28;20030;-72
2023/09/13 04:07:44;;;;;;;13.82;7.60;;;;;;;14.71;74.25;99686.56;4993437;28;20034;-72
2023/09/13 04:10:09;;;;;;;31.17;8.32;;;;;;;14.58;74.52;99673.72;4992578;28;20522;-72
2023/09/13 04:12:35;;;;;;;15.57;7.05;;;;;;;14.48;75.37;99686.31;4993374;28;20463;-72
2023/09/13 04:15:00;;;;;;;12.15;7.93;;;;;;;14.54;75.56;99684.91;4992827;28;20023;-72
2023/09/13 04:17:26;;;;;;;48.80;27.75;;;;;;;14.54;75.82;99684.06;4993307;28;20030;-72
2023/09/13 04:19:51;;;;;;;58.20;28.13;;;;;;;14.55;75.75;99680.91;4992447;28;20097;-72
2023/09/13 04:22:17;;;;;;;29.90;18.95;;;;;;;14.66;75.58;99684.03;4991222;28;20033;-72
2023/09/13 04:24:42;;;;;;;21.50;11.40;;;;;;;14.63;75.26;99679.13;4986948;28;20034;-72
2023/09/13 04:27:08;;;;;;;25.30;9.40;;;;;;;14.72;75.22;99682.63;4993109;28;20077;-72
2023/09/13 04:29:34;;;;;;;11.05;6.65;;;;;;;14.93;74.09;99687.22;4974822;28;20038;-72
2023/09/13 04:31:59;;;;;;;12.57;8.00;;;;;;;14.80;74.32;99688.47;4993104;28;20030;-72
2023/09/13 04:34:30;;;;;;;15.13;7.00;;;;;;;14.77;74.60;99686.38;4992275;28;20025;-72
2023/09/13 04:36:56;;;;;;;17.42;7.72;;;;;;;14.79;74.18;99693.28;4992264;28;20026;-72
2023/09/13 04:39:21;;;;;;;11.70;7.40;;;;;;;14.71;74.64;99683.75;4991567;28;20392;-72
2023/09/13 04:41:46;;;;;;;19.25;7.75;;;;;;;14.77;74.45;99689.97;4992904;28;20053;-72
2023/09/13 04:44:12;;;;;;;17.05;7.85;;;;;;;14.71;74.35;99692.19;4987579;28;20049;-72
2023/09/13 04:46:37;;;;;;;13.68;7.10;;;;;;;14.88;74.17;99698.75;4992781;28;20085;-72
2023/09/13 04:49:03;;;;;;;19.42;7.63;;;;;;;14.87;73.94;99692.28;4991420;28;20475;-72
2023/09/13 04:51:28;;;;;;;16.48;7.32;;;;;;;14.89;74.02;99691.94;4973377;28;20412;-72
2023/09/13 04:53:54;;;;;;;24.77;8.52;;;;;;;14.76;74.42;99690.34;4973578;28;20027;-72
2023/09/13 04:56:19;;;;;;;23.08;7.60;;;;;;;14.72;75.44;99693.91;4973400;28;20567;-72
2023/09/13 04:58:45;;;;;;;14.35;8.05;;;;;;;14.84;75.19;99695.00;4973478;28;20559;-72
2023/09/13 05:01:10;;;;;;;17.67;8.05;;;;;;;14.77;75.72;99692.00;4983694;28;20037;-72
2023/09/13 05:03:36;;;;;;;13.05;7.78;;;;;;;14.93;75.55;99690.03;4977928;28;20026;-72
2023/09/13 05:06:01;;;;;;;18.38;7.85;;;;;;;14.82;76.22;99689.75;4988599;28;20027;-72
2023/09/13 05:08:27;;;;;;;22.92;8.15;;;;;;;15.09;75.66;99678.81;4988005;28;20036;-72
2023/09/13 05:10:54;;;;;;;16.27;7.75;;;;;;;15.13;76.21;99684.53;4989378;28;20383;-71
2023/09/13 05:13:19;;;;;;;16.60;7.55;;;;;;;15.29;76.46;99685.38;4990932;28;20026;-70
2023/09/13 05:15:44;;;;;;;18.75;8.80;;;;;;;15.50;75.52;99689.94;4992410;28;20027;-72
2023/09/13 05:18:10;;;;;;;16.30;9.48;;;;;;;15.56;76.11;99687.66;4988240;28;20423;-70
2023/09/13 05:20:36;;;;;;;12.25;8.13;;;;;;;15.68;76.46;99690.41;4988108;28;20026;-73
2023/09/13 05:23:03;;;;;;;13.68;7.43;;;;;;;15.82;75.68;99689.94;4980955;28;20026;-73
2023/09/13 05:25:28;;;;;;;17.98;7.80;;;;;;;15.91;75.98;99695.41;4990663;28;20038;-69
2023/09/13 05:27:54;;;;;;;15.35;7.80;;;;;;;16.04;76.68;99698.94;4989961;28;20030;-71
2023/09/13 05:30:19;;;;;;;15.02;7.50;;;;;;;16.19;75.78;99697.25;4992055;28;20022;-73
2023/09/13 05:32:45;;;;;;;12.38;7.07;;;;;;;16.26;76.00;99705.06;4974651;28;20026;-74
2023/09/13 05:35:10;;;;;;;15.93;8.43;;;;;;;16.51;74.93;99704.81;4990955;28;20502;-75
2023/09/13 05:37:36;;;;;;;13.32;7.75;;;;;;;16.45;74.58;99692.19;4990888;28;20061;-71
2023/09/13 05:40:06;;;;;;;16.25;7.20;;;;;;;16.49;74.93;99693.91;4987847;28;20030;-70
2023/09/13 05:42:35;;;;;;;21.75;7.97;;;;;;;16.66;74.76;99695.47;4981052;28;20439;-70
2023/09/13 05:45:01;;;;;;;23.15;8.30;;;;;;;16.70;74.31;99699.19;4973961;28;20311;-70
2023/09/13 05:47:28;;;;;;;10.45;7.47;;;;;;;16.84;73.95;99703.50;4989184;28;20030;-71
2023/09/13 05:49:53;;;;;;;14.40;7.70;;;;;;;17.00;73.31;99706.28;4990582;28;20092;-72
2023/09/13 05:52:19;;;;;;;17.75;9.25;;;;;;;17.10;72.66;99704.84;4989923;28;20026;-71
2023/09/13 05:54:44;;;;;;;15.52;7.70;;;;;;;17.06;73.12;99713.25;4989733;28;20037;-74
2023/09/13 05:57:10;;;;;;;18.25;8.45;;;;;;;17.33;71.93;99704.88;4984377;28;20033;-74
2023/09/13 05:59:39;;;;;;;16.98;8.77;;;;;;;17.52;71.45;99706.84;4978216;28;20027;-75
2023/09/13 06:02:06;;;;;;;21.77;11.23;;;;;;;17.46;71.53;99699.06;4982152;28;20034;-74
2023/09/13 06:04:32;;;;;;;18.05;8.10;;;;;;;17.26;72.07;99704.75;4983730;28;20049;-75
2023/09/13 06:06:57;;;;;;;21.23;8.65;;;;;;;17.28;72.06;99708.00;4990417;28;20031;-74
2023/09/13 06:09:23;;;;;;;9.52;6.28;;;;;;;17.54;71.71;99706.44;4986586;28;20026;-75
2023/09/13 06:11:48;;;;;;;21.85;8.68;;;;;;;17.76;71.36;99710.47;4989719;28;20030;-75
2023/09/13 06:14:14;;;;;;;10.15;7.00;;;;;;;17.82;71.09;99710.97;4990290;28;20038;-75
2023/09/13 06:16:40;;;;;;;10.80;6.50;;;;;;;17.92;70.59;99703.84;4993039;28;20041;-75
2023/09/13 06:19:05;;;;;;;12.02;6.95;;;;;;;18.06;70.81;99706.13;4992148;28;20522;-73
2023/09/13 06:21:31;;;;;;;14.48;7.72;;;;;;;18.00;70.26;99704.78;4991259;28;20034;-72
2023/09/13 06:23:56;;;;;;;17.55;7.30;;;;;;;18.13;70.20;99708.25;4988300;28;20466;-72
2023/09/13 06:26:22;;;;;;;11.82;6.80;;;;;;;18.35;69.77;99710.22;4988658;28;20439;-73
2023/09/13 06:28:47;;;;;;;12.32;5.43;;;;;;;18.60;68.70;99711.75;4988146;28;20484;-73
2023/09/13 06:31:13;;;;;;;13.65;6.72;;;;;;;18.54;68.44;99708.44;4985750;28;20514;-68
2023/09/13 06:33:39;;;;;;;16.67;6.68;;;;;;;18.73;68.38;99713.13;4988715;28;20026;-73
2023/09/13 06:36:05;;;;;;;14.43;6.40;;;;;;;18.93;67.38;99708.09;4995980;28;20462;-73
2023/09/13 06:38:31;;;;;;;12.82;6.00;;;;;;;19.04;66.76;99707.44;4994896;28;20022;-72
2023/09/13 06:40:56;;;;;;;12.25;6.25;;;;;;;19.01;67.12;99696.91;4991088;28;20030;-70
2023/09/13 06:43:22;;;;;;;20.17;6.30;;;;;;;19.38;66.01;99704.56;4988977;28;20030;-72
2023/09/13 06:45:48;;;;;;;8.88;5.60;;;;;;;19.50;65.50;99709.97;4987591;28;20041;-74
2023/09/13 06:48:15;;;;;;;9.25;5.57;;;;;;;19.58;65.15;99701.53;4984779;28;20503;-74
2023/09/13 06:50:41;;;;;;;19.08;6.93;;;;;;;19.43;65.28;99707.06;4984105;28;20031;-75
2023/09/13 06:53:06;;;;;;;8.23;5.50;;;;;;;19.82;64.28;99714.31;4984904;28;20474;-75
2023/09/13 06:55:32;;;;;;;12.88;6.00;;;;;;;19.92;63.46;99707.09;4990288;28;20077;-74
2023/09/13 06:57:58;;;;;;;10.95;6.57;;;;;;;19.67;64.66;99701.19;4989110;28;20030;-75
2023/09/13 07:00:23;;;;;;;13.10;7.47;;;;;;;19.89;64.00;99703.00;4980751;28;20414;-75
2023/09/13 07:02:48;;;;;;;12.23;5.95;;;;;;;20.20;62.80;99706.50;4982792;28;20266;-74
2023/09/13 07:05:14;;;;;;;8.27;5.70;;;;;;;20.40;62.50;99709.06;4988311;28;20679;-73
2023/09/13 07:07:40;;;;;;;14.63;5.95;;;;;;;20.43;61.68;99707.47;4988210;28;20463;-74
2023/09/13 07:10:05;;;;;;;7.22;6.20;;;;;;;20.70;61.81;99693.81;4987482;28;20057;-74
2023/09/13 07:12:31;;;;;;;12.65;6.35;;;;;;;20.92;61.13;99696.75;4995115;28;20065;-74
2023/09/13 07:14:56;;;;;;;19.60;6.68;;;;;;;20.18;62.30;99697.56;4989490;28;20030;-67
2023/09/13 07:17:22;;;;;;;16.65;8.10;;;;;;;20.19;62.69;99682.16;4988712;28;20034;-69
2023/09/13 07:19:47;;;;;;;15.18;5.95;;;;;;;20.76;61.07;99691.41;4990641;28;20053;-71
2023/09/13 07:22:13;;;;;;;9.02;6.15;;;;;;;21.07;60.29;99694.78;4990098;28;20033;-68
2023/09/13 07:24:38;;;;;;;8.27;5.95;;;;;;;21.25;58.86;99694.81;4986103;28;20031;-70
2023/09/13 07:27:04;;;;;;;17.20;6.32;;;;;;;21.49;57.99;99688.78;4990065;28;20129;-69
2023/09/13 07:29:29;;;;;;;11.20;5.20;;;;;;;21.59;57.84;99685.94;4990236;28;20502;-69
2023/09/13 07:31:55;;;;;;;9.93;6.35;;;;;;;21.78;60.12;99688.81;4989598;28;20026;-68
2023/09/13 07:34:20;;;;;;;13.88;5.80;;;;;;;21.88;57.57;99700.19;4992349;28;20022;-69
2023/09/13 07:36:46;;;;;;;9.43;5.43;;;;;;;21.93;56.13;99692.47;4975450;28;20038;-71
2023/09/13 07:39:11;;;;;;;14.15;5.88;;;;;;;22.24;57.07;99681.44;4988864;28;20125;-69
2023/09/13 07:41:37;;;;;;;10.07;5.38;;;;;;;22.46;55.23;99678.53;4991575;28;20510;-70
2023/09/13 07:44:02;;;;;;;15.43;5.68;;;;;;;22.27;54.06;99672.88;4992345;28;20026;-70
2023/09/13 07:46:28;;;;;;;9.73;5.18;;;;;;;22.20;53.66;99683.47;4992663;28;20787;-69
2023/09/13 07:48:53;;;;;;;8.68;5.38;;;;;;;22.62;53.20;99669.56;4983654;28;20109;-72
2023/09/13 07:51:19;;;;;;;9.00;5.47;;;;;;;22.91;52.47;99675.13;4992693;28;20033;-72
2023/09/13 07:53:44;;;;;;;8.52;5.53;;;;;;;22.95;51.91;99671.03;4990597;28;20026;-71
2023/09/13 07:56:10;;;;;;;15.13;5.35;;;;;;;23.17;51.25;99672.94;4989800;28;20022;-71
2023/09/13 07:58:35;;;;;;;6.68;5.28;;;;;;;23.34;51.75;99683.47;4990746;28;20518;-71
2023/09/13 08:01:02;;;;;;;21.88;6.22;;;;;;;23.19;51.48;99677.00;4989247;28;20040;-71
2023/09/13 08:03:27;;;;;;;10.52;5.50;;;;;;;23.22;54.46;99681.06;4988424;28;20042;-70
2023/09/13 08:05:53;;;;;;;13.13;5.57;;;;;;;23.42;52.00;99675.66;4971950;28;20026;-69
2023/09/13 08:08:22;;;;;;;10.07;5.00;;;;;;;23.60;52.44;99675.53;4991216;28;20026;-70
2023/09/13 08:10:51;;;;;;;8.23;5.47;;;;;;;23.48;51.18;99682.56;4990110;28;20031;-71
2023/09/13 08:13:22;;;;;;;10.13;5.05;;;;;;;23.55;51.57;99678.84;4991138;28;20026;-70
2023/09/13 08:15:50;;;;;;;8.02;4.20;;;;;;;23.38;51.17;99681.38;4989576;28;20034;-71
2023/09/13 08:18:16;;;;;;;14.55;5.75;;;;;;;23.34;51.17;99676.94;4987013;28;20034;-71
2023/09/13 08:20:41;;;;;;;6.63;4.57;;;;;;;22.94;52.95;99668.59;4986749;28;20501;-69
2023/09/13 08:23:07;;;;;;;14.70;4.75;;;;;;;23.40;51.06;99663.84;4985753;28;20038;-69
2023/09/13 08:25:32;;;;;;;10.50;4.68;;;;;;;23.59;49.80;99662.50;4964084;28;20486;-71
2023/09/13 08:27:58;;;;;;;9.70;4.78;;;;;;;23.56;49.91;99663.34;4974565;28;20117;-69
2023/09/13 08:30:23;;;;;;;19.40;7.28;;;;;;;23.84;51.70;99667.16;4987475;28;20030;-69
2023/09/13 08:32:49;;;;;;;10.00;5.50;;;;;;;24.18;48.79;99674.22;4986985;28;20104;-68
2023/09/13 08:35:15;;;;;;;34.85;21.73;;;;;;;24.39;47.84;99664.63;4989256;28;20030;-69
2023/09/13 08:37:40;;;;;;;13.10;6.30;;;;;;;24.35;47.80;99660.97;4990614;28;20507;-67
2023/09/13 08:40:06;;;;;;;9.52;5.47;;;;;;;24.23;48.04;99666.00;4987084;28;20491;-69
2023/09/13 08:42:33;;;;;;;7.47;5.88;;;;;;;23.95;48.45;99658.50;4979942;28;20026;-67
2023/09/13 08:44:59;;;;;;;13.52;5.38;;;;;;;24.53;48.78;99655.88;4991631;28;20034;-69
2023/09/13 08:47:27;;;;;;;7.85;6.03;;;;;;;24.87;47.38;99650.59;4987292;28;20507;-69
2023/09/13 08:49:53;;;;;;;63.33;44.72;;;;;;;25.18;48.64;99647.69;4988806;28;20077;-69
2023/09/13 08:52:21;;;;;;;45.67;32.90;;;;;;;25.45;48.74;99652.59;4983600;28;20031;-69
2023/09/13 08:54:49;;;;;;;40.90;31.98;;;;;;;25.47;47.21;99641.53;4989787;28;20022;-69
2023/09/13 08:57:15;;;;;;;25.75;20.45;;;;;;;25.73;45.94;99642.75;4967010;28;20128;-70
2023/09/13 08:59:41;;;;;;;159.75;112.57;;;;;;;25.57;47.24;99643.41;4987727;28;20167;-66
2023/09/13 09:02:14;;;;;;;53.72;34.60;;;;;;;25.92;45.95;99644.03;4987729;28;20042;-67
2023/09/13 09:04:40;;;;;;;94.40;61.50;;;;;;;26.08;46.39;99654.81;4984648;28;20034;-67
2023/09/13 09:07:07;;;;;;;392.08;266.40;;;;;;;26.24;45.00;99652.50;4982955;28;20045;-70
2023/09/13 09:09:34;;;;;;;83.63;64.78;;;;;;;26.36;43.83;99649.00;4980272;28;20026;-69
2023/09/13 09:12:02;;;;;;;37.67;29.70;;;;;;;26.61;43.89;99639.06;4976861;28;20481;-71
2023/09/13 09:14:32;;;;;;;200.40;142.60;;;;;;;26.88;42.93;99641.81;4986264;28;20483;-70
2023/09/13 09:16:59;;;;;;;;;;;;;;;26.93;42.65;99633.91;4989714;28;20430;-70
2023/09/13 09:19:25;;;;;;;96.07;73.60;;;;;;;27.04;42.26;99626.69;4988406;28;19913;-70
2023/09/13 09:21:50;;;;;;;188.95;122.82;;;;;;;26.76;42.31;99628.13;4988296;28;20502;-71
2023/09/13 09:24:16;;;;;;;48.13;37.03;;;;;;;26.38;43.81;99623.56;4986998;28;20029;-69
2023/09/13 09:26:44;;;;;;;9.40;5.60;;;;;;;26.05;42.57;99623.34;4977232;28;20467;-73
2023/09/13 09:29:15;;;;;;;41.53;33.63;;;;;;;26.54;43.53;99619.13;4985622;28;20026;-69
2023/09/13 09:31:40;;;;;;;16.90;12.63;;;;;;;26.89;41.46;99625.38;4985905;28;20030;-69
2023/09/13 09:34:09;;;;;;;15.20;7.85;;;;;;;27.23;40.66;99629.16;4984814;28;20416;-71
2023/09/13 09:36:44;;;;;;;73.22;54.17;;;;;;;27.25;41.58;99620.88;4987014;28;20026;-72
2023/09/13 09:39:10;;;;;;;11.73;6.03;;;;;;;27.45;40.58;99613.00;5010284;28;20057;-74
2023/09/13 09:41:37;;;;;;;58.15;41.83;;;;;;;27.47;40.37;99612.53;4993151;28;20034;-75
2023/09/13 09:44:04;;;;;;;58.05;37.45;;;;;;;27.63;40.63;99608.06;4991596;28;20034;-77
2023/09/13 09:46:31;;;;;;;16.40;9.27;;;;;;;28.00;38.40;99600.94;4990960;28;20034;-80
2023/09/13 09:48:57;;;;;;;207.27;166.82;;;;;;;27.81;37.17;99605.56;4991785;28;20022;-79
2023/09/13 09:51:22;;;;;;;22.63;16.48;;;;;;;27.82;37.19;99600.63;4991731;28;20041;-73
2023/09/13 09:53:48;;;;;;;22.42;16.63;;;;;;;27.85;38.64;99603.38;4990256;28;20038;-78
2023/09/13 09:56:17;;;;;;;5.95;4.82;;;;;;;27.92;36.29;99596.63;4971359;28;20029;-74
2023/09/13 09:58:45;;;;;;;9.20;4.38;;;;;;;27.80;36.60;99597.38;4989611;28;20038;-77
2023/09/13 10:01:16;;;;;;;11.70;5.88;;;;;;;27.98;37.00;99579.66;4988336;28;20030;-78
2023/09/13 10:03:43;;;;;;;7.05;4.47;;;;;;;27.81;37.19;99587.50;4990027;28;20041;-76
2023/09/13 10:06:10;;;;;;;11.10;4.03;;;;;;;28.12;36.51;99584.19;4987006;28;20146;-76
2023/09/13 10:08:48;;;;;;;6.80;4.28;;;;;;;28.38;35.72;99579.38;4966414;28;20035;-79
2023/09/13 10:11:21;;;;;;;5.38;3.90;;;;;;;27.67;35.89;99582.94;4986850;28;20030;-79
2023/09/13 10:13:47;;;;;;;18.98;13.38;;;;;;;28.25;36.13;99584.28;4968563;28;20101;-72
2023/09/13 10:16:15;;;;;;;12.80;6.35;;;;;;;28.66;36.75;99571.13;4987127;28;20470;-73
2023/09/13 10:18:46;;;;;;;10.85;4.88;;;;;;;28.66;36.60;99574.00;4986770;28;20034;-73
2023/09/13 10:21:14;;;;;;;9.93;4.13;;;;;;;28.84;35.66;99569.78;4986242;28;20030;-71
2023/09/13 10:24:00;;;;;;;11.07;4.60;;;;;;;28.74;35.67;99560.22;4988310;28;20050;-70
2023/09/13 10:26:29;;;;;;;26.42;21.13;;;;;;;29.14;36.59;99556.91;4984265;28;20530;-71
2023/09/13 10:28:58;;;;;;;26.80;18.90;;;;;;;29.25;36.31;99559.44;4982858;28;20034;-73
2023/09/13 10:31:27;;;;;;;9.82;6.25;;;;;;;28.98;36.70;99549.22;4988634;28;20494;-73
2023/09/13 10:33:56;;;;;;;10.27;5.63;;;;;;;29.17;36.77;99546.53;4972107;28;20030;-74
2023/09/13 10:36:29;;;;;;;7.65;4.72;;;;;;;29.25;35.43;99553.66;4985102;28;20034;-72
2023/09/13 10:39:18;;;;;;;10.80;4.75;;;;;;;29.31;36.21;99556.78;4988154;28;20026;-72
2023/09/13 10:41:58;;;;;;;13.68;5.25;;;;;;;29.81;34.71;99554.25;4985815;28;20113;-71
2023/09/13 10:44:23;;;;;;;;;;;;;;;29.77;33.74;99559.31;4989936;28;20034;-74
2023/09/13 10:46:50;;;;;;;8.60;4.90;;;;;;;29.33;34.47;99553.44;4990515;28;19920;-71
2023/09/13 10:49:15;;;;;;;12.80;4.50;;;;;;;29.44;34.67;99551.00;4990797;28;20441;-72
2023/09/13 10:51:43;;;;;;;8.38;4.40;;;;;;;29.50;35.51;99540.53;4989742;28;20069;-70
2023/09/13 10:54:09;;;;;;;9.10;3.80;;;;;;;29.29;34.24;99533.41;4989202;28;20483;-70
2023/09/13 10:56:35;;;;;;;6.85;3.58;;;;;;;29.49;34.43;99538.09;4989052;28;20058;-71
2023/09/13 10:59:01;;;;;;;15.52;4.03;;;;;;;29.64;33.75;99535.53;4989839;28;20058;-69
2023/09/13 11:01:27;;;;;;;8.82;4.15;;;;;;;29.73;34.21;99529.84;4991293;28;20447;-73
2023/09/13 11:03:54;;;;;;;7.60;4.07;;;;;;;29.85;33.14;99528.16;4988468;28;20030;-71
2023/09/13 11:06:22;;;;;;;10.93;3.50;;;;;;;29.77;32.91;99538.38;4980590;28;20030;-72
2023/09/13 11:08:48;;;;;;;7.15;3.75;;;;;;;30.05;32.29;99533.66;4999418;28;20494;-71
2023/09/13 11:11:17;;;;;;;12.07;3.45;;;;;;;30.33;32.83;99533.03;4991711;28;20045;-72
2023/09/13 11:13:46;;;;;;;;;;;;;;;30.26;32.01;99537.00;4992501;28;20034;-73
2023/09/13 11:16:16;;;;;;;11.63;5.65;;;;;;;30.11;32.96;99526.00;4986610;28;19918;-73
2023/09/13 11:18:48;;;;;;;6.72;4.35;;;;;;;30.09;32.72;99528.56;4985686;28;20034;-73
2023/09/13 11:21:23;;;;;;;8.00;4.18;;;;;;;30.42;31.27;99517.88;4992413;28;20022;-72
2023/09/13 11:23:52;;;;;;;6.53;3.47;;;;;;;30.47;31.49;99511.50;4992019;28;20530;-73
2023/09/13 11:26:54;;;;;;;8.60;4.00;;;;;;;30.64;31.34;99509.19;4993330;28;20083;-73